createdAt,value
2017-10-20T00:01:57.323Z,94.68
2017-10-20T00:04:24.815Z,94.68
2017-10-20T00:06:52.404Z,94.71
2017-10-20T00:09:19.905Z,94.68
2017-10-20T00:11:47.407Z,94.72
2017-10-20T00:14:14.935Z,94.74
2017-10-20T00:16:42.426Z,94.76
2017-10-20T00:19:09.924Z,94.79
2017-10-20T00:21:37.514Z,94.66
2017-10-20T00:24:05.020Z,94.69
2017-10-20T00:26:32.513Z,94.66
2017-10-20T00:29:00.067Z,94.62
2017-10-20T00:31:27.556Z,94.60
2017-10-20T00:33:55.054Z,94.55
2017-10-20T00:36:22.571Z,94.58
2017-10-20T00:38:50.063Z,94.60
2017-10-20T00:41:17.628Z,94.59
2017-10-20T00:43:45.180Z,94.64
2017-10-20T00:46:12.677Z,94.60
2017-10-20T00:48:40.180Z,94.62
2017-10-20T00:51:07.718Z,94.61
2017-10-20T00:53:35.218Z,94.64
2017-10-20T00:56:02.717Z,94.64
2017-10-20T00:58:30.283Z,94.62
2017-10-20T01:00:57.810Z,94.60
2017-10-20T01:03:25.349Z,94.67
2017-10-20T01:05:52.875Z,94.63
2017-10-20T01:08:20.467Z,94.58
2017-10-20T01:10:47.963Z,94.51
2017-10-20T01:13:15.505Z,94.50
2017-10-20T01:15:43.012Z,94.46
2017-10-20T01:18:10.507Z,94.48
2017-10-20T01:20:38.036Z,94.50
2017-10-20T01:23:05.533Z,94.53
2017-10-20T01:25:33.023Z,94.46
2017-10-20T01:28:00.735Z,94.45
2017-10-20T01:30:28.305Z,94.48
2017-10-20T01:32:55.796Z,94.45
2017-10-20T01:35:23.320Z,94.48
2017-10-20T01:37:50.875Z,94.45
2017-10-20T01:40:18.376Z,94.45
2017-10-20T01:42:45.936Z,94.47
2017-10-20T01:45:13.432Z,94.49
2017-10-20T01:47:40.991Z,94.46
2017-10-20T01:50:08.658Z,94.38
2017-10-20T01:52:36.148Z,94.31
2017-10-20T01:55:03.639Z,94.30
2017-10-20T01:57:31.204Z,94.23
2017-10-20T01:59:58.693Z,94.26
2017-10-20T02:02:26.179Z,94.15
2017-10-20T02:04:53.908Z,94.05
2017-10-20T02:07:21.396Z,93.96
2017-10-20T02:09:48.884Z,93.94
2017-10-20T02:12:16.421Z,93.94
2017-10-20T02:14:43.929Z,93.81
2017-10-20T02:17:11.420Z,93.67
2017-10-20T02:19:38.939Z,93.64
2017-10-20T02:22:06.429Z,93.60
2017-10-20T02:24:33.925Z,93.61
2017-10-20T02:27:01.543Z,93.63
2017-10-20T02:29:29.036Z,93.60
2017-10-20T02:31:56.523Z,93.66
2017-10-20T02:34:24.123Z,93.68
2017-10-20T02:36:51.612Z,93.63
2017-10-20T02:39:19.110Z,93.69
2017-10-20T02:41:46.620Z,93.78
2017-10-20T02:44:14.110Z,93.77
2017-10-20T02:46:41.655Z,93.74
2017-10-20T02:49:09.148Z,93.73
2017-10-20T02:51:36.726Z,93.83
2017-10-20T02:54:04.241Z,93.83
2017-10-20T02:56:31.757Z,93.80
2017-10-20T02:58:59.291Z,93.84
2017-10-20T03:01:26.780Z,93.75
2017-10-20T03:03:54.272Z,93.82
2017-10-20T03:06:21.788Z,93.85
2017-10-20T03:08:49.283Z,93.78
2017-10-20T03:11:16.800Z,93.68
2017-10-20T03:13:44.313Z,93.58
2017-10-20T03:16:11.916Z,93.64
2017-10-20T03:18:39.457Z,93.71
2017-10-20T03:21:06.947Z,93.65
2017-10-20T03:23:34.438Z,93.72
2017-10-20T03:26:01.968Z,93.69
2017-10-20T03:28:29.503Z,93.72
2017-10-20T03:30:57.001Z,93.71
2017-10-20T03:33:24.511Z,93.71
2017-10-20T03:35:51.997Z,93.59
2017-10-20T03:38:19.635Z,93.62
2017-10-20T03:40:47.223Z,93.69
2017-10-20T03:43:14.755Z,93.56
2017-10-20T03:45:42.279Z,93.53
2017-10-20T03:48:09.798Z,93.39
2017-10-20T03:50:37.283Z,93.29
2017-10-20T03:53:04.997Z,93.29
2017-10-20T03:55:32.485Z,93.32
2017-10-20T03:57:59.966Z,93.23
2017-10-20T04:00:27.491Z,93.17
2017-10-20T04:02:55.032Z,93.20
2017-10-20T04:05:22.520Z,93.23
2017-10-20T04:07:50.058Z,93.16
2017-10-20T04:10:17.546Z,93.16
2017-10-20T04:12:45.036Z,93.07
2017-10-20T04:15:12.559Z,93.05
2017-10-20T04:17:40.052Z,92.96
2017-10-20T04:20:07.553Z,92.94
2017-10-20T04:22:35.076Z,92.82
2017-10-20T04:25:02.555Z,92.73
2017-10-20T04:27:30.048Z,92.79
2017-10-20T04:29:57.574Z,92.77
2017-10-20T04:32:25.056Z,92.73
2017-10-20T04:34:52.544Z,92.68
2017-10-20T04:37:20.067Z,92.70
2017-10-20T04:39:47.556Z,92.69
2017-10-20T04:42:15.064Z,92.62
2017-10-20T04:44:42.588Z,92.68
2017-10-20T04:47:10.079Z,92.79
2017-10-20T04:49:37.568Z,92.89
2017-10-20T04:52:05.093Z,92.72
2017-10-20T04:54:32.584Z,92.76
2017-10-20T04:57:00.068Z,92.69
2017-10-20T04:59:27.591Z,92.76
2017-10-20T05:01:55.126Z,92.78
2017-10-20T05:04:22.682Z,92.66
2017-10-20T05:06:50.172Z,92.62
2017-10-20T05:09:17.696Z,92.34
2017-10-20T05:11:45.189Z,92.36
2017-10-20T05:14:12.716Z,92.35
2017-10-20T05:16:40.384Z,92.19
2017-10-20T05:19:07.872Z,92.10
2017-10-20T05:21:35.359Z,91.95
2017-10-20T05:24:02.885Z,91.80
2017-10-20T05:26:30.374Z,91.57
2017-10-20T05:28:57.866Z,91.15
2017-10-20T05:31:25.427Z,90.75
2017-10-20T05:33:52.923Z,90.46
2017-10-20T05:36:20.449Z,90.41
2017-10-20T05:38:47.978Z,90.38
2017-10-20T05:41:15.476Z,90.36
2017-10-20T05:43:42.967Z,90.20
2017-10-20T05:46:10.512Z,90.28
2017-10-20T05:48:37.999Z,90.37
2017-10-20T05:51:05.488Z,90.28
2017-10-20T05:53:33.015Z,90.24
2017-10-20T05:56:00.498Z,90.16
2017-10-20T05:58:27.988Z,90.18
2017-10-20T06:00:55.543Z,90.00
2017-10-20T06:03:23.040Z,90.08
2017-10-20T06:05:50.529Z,90.13
2017-10-20T06:08:18.060Z,90.26
2017-10-20T06:10:45.655Z,90.35
2017-10-20T06:13:13.141Z,90.44
2017-10-20T06:15:40.775Z,90.64
2017-10-20T06:18:08.260Z,90.42
2017-10-20T06:20:35.748Z,90.46
2017-10-20T06:23:03.256Z,90.45
2017-10-20T06:25:30.801Z,90.53
2017-10-20T06:27:58.376Z,90.37
2017-10-20T06:30:25.865Z,90.32
2017-10-20T06:32:53.380Z,90.25
2017-10-20T06:35:20.869Z,90.23
2017-10-20T06:37:48.362Z,90.21
2017-10-20T06:40:15.958Z,90.20
2017-10-20T06:42:43.530Z,90.15
2017-10-20T06:45:11.019Z,89.60
2017-10-20T06:47:38.635Z,89.33
2017-10-20T06:50:06.125Z,89.05
2017-10-20T06:52:33.613Z,88.61
2017-10-20T06:55:01.162Z,88.15
2017-10-20T06:57:28.658Z,88.00
2017-10-20T06:59:56.231Z,87.81
2017-10-20T07:02:23.767Z,87.41
2017-10-20T07:04:51.360Z,87.23
2017-10-20T07:07:18.911Z,87.29
2017-10-20T07:09:46.590Z,86.75
2017-10-20T07:12:14.084Z,86.88
2017-10-20T07:14:41.697Z,86.38
2017-10-20T07:17:09.232Z,86.43
2017-10-20T07:19:41.103Z,86.15
2017-10-20T07:22:08.772Z,86.10
2017-10-20T07:24:36.323Z,85.63
2017-10-20T07:27:03.818Z,85.19
2017-10-20T07:29:31.367Z,84.93
2017-10-20T07:31:58.860Z,84.58
2017-10-20T07:34:26.350Z,84.27
2017-10-20T07:36:53.883Z,84.26
2017-10-20T07:39:21.372Z,84.17
2017-10-20T07:41:48.863Z,83.82
2017-10-20T07:44:16.620Z,83.59
2017-10-20T07:46:44.111Z,83.38
2017-10-20T07:49:11.603Z,82.91
2017-10-20T07:51:39.324Z,82.58
2017-10-20T07:54:06.818Z,82.15
2017-10-20T07:56:34.395Z,81.68
2017-10-20T07:59:02.057Z,82.03
2017-10-20T08:01:29.624Z,81.86
2017-10-20T08:03:57.118Z,81.87
2017-10-20T08:06:24.661Z,81.31
2017-10-20T08:08:52.148Z,80.26
2017-10-20T08:11:19.639Z,79.99
2017-10-20T08:13:47.212Z,79.78
2017-10-20T08:16:14.712Z,79.37
2017-10-20T08:18:42.245Z,78.57
2017-10-20T08:21:09.884Z,78.35
2017-10-20T08:23:37.378Z,77.98
2017-10-20T08:26:04.872Z,77.43
2017-10-20T08:28:32.420Z,77.34
2017-10-20T08:30:59.913Z,76.98
2017-10-20T08:33:27.415Z,76.43
2017-10-20T08:35:55.149Z,76.05
2017-10-20T08:38:22.705Z,75.94
2017-10-20T08:40:50.199Z,75.63
2017-10-20T08:43:17.761Z,75.84
2017-10-20T08:45:45.254Z,75.79
2017-10-20T08:48:12.838Z,75.64
2017-10-20T08:50:40.395Z,75.15
2017-10-20T08:53:07.885Z,74.72
2017-10-20T08:55:35.381Z,74.12
2017-10-20T08:58:02.921Z,73.83
2017-10-20T09:00:30.403Z,73.16
2017-10-20T09:02:57.898Z,73.16
2017-10-20T09:05:25.430Z,72.81
2017-10-20T09:07:52.923Z,72.48
2017-10-20T09:10:20.426Z,71.91
2017-10-20T09:12:48.140Z,71.84
2017-10-20T09:15:15.640Z,71.17
2017-10-20T09:17:43.136Z,71.28
2017-10-20T09:20:10.801Z,71.08
2017-10-20T09:22:38.300Z,71.13
2017-10-20T09:25:05.804Z,71.30
2017-10-20T09:27:33.348Z,70.76
2017-10-20T09:30:00.840Z,70.58
2017-10-20T09:32:28.337Z,70.61
2017-10-20T09:34:55.859Z,70.44
2017-10-20T09:37:23.356Z,70.22
2017-10-20T09:39:50.909Z,69.92
2017-10-20T09:42:18.411Z,70.54
2017-10-20T09:44:45.968Z,70.35
2017-10-20T09:47:13.497Z,70.05
2017-10-20T09:49:40.996Z,70.26
2017-10-20T09:52:08.491Z,69.90
2017-10-20T09:54:36.124Z,69.74
2017-10-20T09:57:03.622Z,69.22
2017-10-20T09:59:31.136Z,69.44
2017-10-20T10:01:58.658Z,69.35
2017-10-20T10:04:26.151Z,69.02
2017-10-20T10:06:53.709Z,68.21
2017-10-20T10:09:21.257Z,67.66
2017-10-20T10:11:48.747Z,67.04
2017-10-20T10:14:16.294Z,66.47
2017-10-20T10:16:43.833Z,66.04
2017-10-20T10:19:11.404Z,65.05
2017-10-20T10:21:38.907Z,64.66
2017-10-20T10:24:06.624Z,64.50
2017-10-20T10:26:34.124Z,64.11
2017-10-20T10:29:01.665Z,64.12
2017-10-20T10:31:29.191Z,64.22
2017-10-20T10:33:56.733Z,64.80
2017-10-20T10:36:24.264Z,64.55
2017-10-20T10:38:51.780Z,64.74
2017-10-20T10:41:19.339Z,64.56
2017-10-20T10:43:46.845Z,64.19
2017-10-20T10:46:14.360Z,64.24
2017-10-20T10:48:41.918Z,64.46
2017-10-20T10:51:09.405Z,64.53
2017-10-20T10:53:36.896Z,64.07
2017-10-20T10:56:04.414Z,63.54
2017-10-20T10:58:31.904Z,62.76
2017-10-20T11:00:59.438Z,62.94
2017-10-20T11:03:26.933Z,63.19
2017-10-20T11:06:06.556Z,64.28
2017-10-20T11:11:47.697Z,65.54
2017-10-20T11:14:15.184Z,65.11
2017-10-20T11:16:42.696Z,65.33
2017-10-20T11:19:10.247Z,65.26
2017-10-20T11:21:37.735Z,65.62
2017-10-20T11:24:05.237Z,65.73
2017-10-20T11:26:32.776Z,65.36
2017-10-20T11:29:00.267Z,65.27
2017-10-20T11:31:27.784Z,65.55
2017-10-20T11:33:55.306Z,65.19
2017-10-20T11:36:22.805Z,65.04
2017-10-20T11:38:50.343Z,65.43
2017-10-20T11:41:17.902Z,65.73
2017-10-20T11:43:45.396Z,65.40
2017-10-20T11:46:13.144Z,65.19
2017-10-20T11:48:40.662Z,65.28
2017-10-20T11:51:08.151Z,65.20
2017-10-20T11:53:35.708Z,65.64
2017-10-20T11:56:03.201Z,65.90
2017-10-20T11:58:30.696Z,66.03
2017-10-20T12:00:58.221Z,66.58
2017-10-20T12:03:25.708Z,66.66
2017-10-20T12:05:53.204Z,66.62
2017-10-20T12:08:20.760Z,66.70
2017-10-20T12:10:48.249Z,67.04
2017-10-20T12:13:15.744Z,67.10
2017-10-20T12:15:43.296Z,67.43
2017-10-20T12:18:10.797Z,67.68
2017-10-20T12:20:38.303Z,67.92
2017-10-20T12:23:05.848Z,68.42
2017-10-20T12:25:33.341Z,69.11
2017-10-20T12:28:00.880Z,69.20
2017-10-20T12:30:28.378Z,69.58
2017-10-20T12:32:55.899Z,69.11
2017-10-20T12:35:23.430Z,69.38
2017-10-20T12:37:50.944Z,69.89
2017-10-20T12:40:18.435Z,69.64
2017-10-20T12:42:45.963Z,69.40
2017-10-20T12:45:13.657Z,69.67
2017-10-20T12:47:41.157Z,69.18
2017-10-20T12:50:08.749Z,69.35
2017-10-20T12:52:36.243Z,69.42
2017-10-20T12:55:03.788Z,69.72
2017-10-20T12:57:31.344Z,69.94
2017-10-20T12:59:58.836Z,70.57
2017-10-20T13:02:26.334Z,71.18
2017-10-20T13:04:53.857Z,71.27
2017-10-20T13:07:21.351Z,71.79
2017-10-20T13:09:48.910Z,73.09
2017-10-20T13:12:16.583Z,72.37
2017-10-20T13:14:44.072Z,72.31
2017-10-20T13:17:11.569Z,72.16
2017-10-20T13:19:39.132Z,72.47
2017-10-20T13:22:06.660Z,72.33
2017-10-20T13:24:34.169Z,71.67
2017-10-20T13:27:01.682Z,71.40
2017-10-20T13:29:29.306Z,70.96
2017-10-20T13:31:56.863Z,70.31
2017-10-20T13:34:24.357Z,70.40
2017-10-20T13:36:51.851Z,70.37
2017-10-20T13:39:19.379Z,70.24
2017-10-20T13:41:46.869Z,70.40
2017-10-20T13:44:14.398Z,70.12
2017-10-20T13:46:41.891Z,70.11
2017-10-20T13:49:09.379Z,69.97
2017-10-20T13:51:37.108Z,69.75
2017-10-20T13:54:04.597Z,69.82
2017-10-20T13:56:32.111Z,69.27
2017-10-20T13:58:59.635Z,69.27
2017-10-20T14:01:27.130Z,69.28
2017-10-20T14:03:54.627Z,69.62
2017-10-20T14:06:22.148Z,69.41
2017-10-20T14:08:49.640Z,69.62
2017-10-20T14:11:17.128Z,69.68
2017-10-20T14:13:44.671Z,69.73
2017-10-20T14:16:12.199Z,69.77
2017-10-20T14:18:39.757Z,70.01
2017-10-20T14:21:07.331Z,69.95
2017-10-20T14:23:34.816Z,70.05
2017-10-20T14:26:02.307Z,70.07
2017-10-20T14:28:29.832Z,69.95
2017-10-20T14:30:57.343Z,70.07
2017-10-20T14:33:24.899Z,70.49
2017-10-20T14:35:52.387Z,71.05
2017-10-20T14:38:19.877Z,71.52
2017-10-20T14:40:47.407Z,72.80
2017-10-20T14:43:14.959Z,73.86
2017-10-20T14:45:42.448Z,74.49
2017-10-20T14:48:09.972Z,74.94
2017-10-20T14:50:37.462Z,75.46
2017-10-20T14:53:04.960Z,76.16
2017-10-20T14:55:32.530Z,76.48
2017-10-20T14:58:00.096Z,77.07
2017-10-20T15:00:27.647Z,77.83
2017-10-20T15:02:55.311Z,78.61
2017-10-20T15:05:22.863Z,78.49
2017-10-20T15:07:50.359Z,78.64
2017-10-20T15:10:17.918Z,78.77
2017-10-20T15:12:45.443Z,78.71
2017-10-20T15:15:13.004Z,78.66
2017-10-20T15:17:40.685Z,78.43
2017-10-20T15:20:08.202Z,77.94
2017-10-20T15:22:35.695Z,77.42
2017-10-20T15:25:03.231Z,77.70
2017-10-20T15:27:30.725Z,78.20
2017-10-20T15:29:58.219Z,77.82
2017-10-20T15:32:25.738Z,78.22
2017-10-20T15:34:53.227Z,77.96
2017-10-20T15:37:20.757Z,78.01
2017-10-20T15:39:48.263Z,78.34
2017-10-20T15:42:15.754Z,78.36
2017-10-20T15:44:43.280Z,78.79
2017-10-20T15:47:10.784Z,78.75
2017-10-20T15:49:38.285Z,78.70
2017-10-20T15:52:05.832Z,79.05
2017-10-20T15:54:33.324Z,79.24
2017-10-20T15:57:00.820Z,79.45
2017-10-20T15:59:28.557Z,79.34
2017-10-20T16:01:56.058Z,79.73
2017-10-20T16:04:23.552Z,79.65
2017-10-20T16:06:51.097Z,79.86
2017-10-20T16:09:18.596Z,79.61
2017-10-20T16:11:46.092Z,79.62
2017-10-20T16:14:13.629Z,80.17
2017-10-20T16:16:41.118Z,79.99
2017-10-20T16:19:08.623Z,80.10
2017-10-20T16:21:36.143Z,80.53
2017-10-20T16:24:03.635Z,80.24
2017-10-20T16:26:31.123Z,80.21
2017-10-20T16:28:58.757Z,79.94
2017-10-20T16:31:26.318Z,80.09
2017-10-20T16:33:53.811Z,80.59
2017-10-20T16:36:21.443Z,81.30
2017-10-20T16:38:48.944Z,80.94
2017-10-20T16:41:16.437Z,81.04
2017-10-20T16:43:44.017Z,81.58
2017-10-20T16:46:11.512Z,81.99
2017-10-20T16:48:39.036Z,82.18
2017-10-20T16:51:06.537Z,82.26
2017-10-20T16:53:34.075Z,82.11
2017-10-20T16:56:01.603Z,82.10
2017-10-20T16:58:29.171Z,81.91
2017-10-20T17:00:56.731Z,81.79
2017-10-20T17:03:24.244Z,81.26
2017-10-20T17:05:51.736Z,81.17
2017-10-20T17:08:19.303Z,80.63
2017-10-20T17:10:46.791Z,80.15
2017-10-20T17:13:14.344Z,80.51
2017-10-20T17:15:41.865Z,80.34
2017-10-20T17:18:09.357Z,79.88
2017-10-20T17:20:36.880Z,79.50
2017-10-20T17:23:04.373Z,79.89
2017-10-20T17:25:31.933Z,79.75
2017-10-20T17:27:59.479Z,80.08
2017-10-20T17:30:26.971Z,79.63
2017-10-20T17:32:54.484Z,79.77
2017-10-20T17:35:22.020Z,80.32
2017-10-20T17:37:49.507Z,80.33
2017-10-20T17:40:17.008Z,79.80
2017-10-20T17:42:44.535Z,79.37
2017-10-20T17:45:12.078Z,80.10
2017-10-20T17:47:39.564Z,79.93
2017-10-20T17:50:07.099Z,79.93
2017-10-20T17:52:34.592Z,80.36
2017-10-20T17:55:02.090Z,80.24
2017-10-20T17:57:29.635Z,79.94
2017-10-20T17:59:57.232Z,80.55
2017-10-20T18:02:24.810Z,80.32
2017-10-20T18:04:52.332Z,80.50
2017-10-20T18:07:19.932Z,80.84
2017-10-20T18:09:47.429Z,81.39
2017-10-20T18:12:15.059Z,81.29
2017-10-20T18:14:42.548Z,81.41
2017-10-20T18:17:10.040Z,82.26
2017-10-20T18:19:37.576Z,82.31
2017-10-20T18:22:05.169Z,83.01
2017-10-20T18:24:32.664Z,83.92
2017-10-20T18:27:00.209Z,85.17
2017-10-20T18:29:27.700Z,85.71
2017-10-20T18:31:55.188Z,85.87
2017-10-20T18:34:22.714Z,86.62
2017-10-20T18:36:50.202Z,87.55
2017-10-20T18:39:17.703Z,87.65
2017-10-20T18:41:45.339Z,87.18
2017-10-20T18:44:12.897Z,86.95
2017-10-20T18:46:40.418Z,87.41
2017-10-20T18:49:07.960Z,89.27
2017-10-20T18:51:35.454Z,89.65
2017-10-20T18:54:02.948Z,90.45
2017-10-20T18:56:30.607Z,90.12
2017-10-20T18:58:58.151Z,90.50
2017-10-20T19:01:25.645Z,91.08
2017-10-20T19:03:53.178Z,90.72
2017-10-20T19:06:20.725Z,90.62
2017-10-20T19:08:48.215Z,90.35
2017-10-20T19:11:15.860Z,89.57
2017-10-20T19:13:43.401Z,88.81
2017-10-20T19:16:11.060Z,88.64
2017-10-20T19:18:38.600Z,89.22
2017-10-20T19:21:06.245Z,89.64
2017-10-20T19:23:33.736Z,90.26
2017-10-20T19:26:01.266Z,89.57
2017-10-20T19:28:28.773Z,90.46
2017-10-20T19:30:56.282Z,90.72
2017-10-20T19:33:23.820Z,90.85
2017-10-20T19:35:51.311Z,90.81
2017-10-20T19:38:18.801Z,90.66
2017-10-20T19:40:46.331Z,90.47
2017-10-20T19:43:13.836Z,90.97
2017-10-20T19:45:41.336Z,90.96
2017-10-20T19:48:08.918Z,90.84
2017-10-20T19:50:36.502Z,90.84
2017-10-20T19:53:04.003Z,91.59
2017-10-20T19:55:31.630Z,91.18
2017-10-20T19:57:59.161Z,91.76
2017-10-20T20:00:26.656Z,91.97
2017-10-20T20:02:54.383Z,92.33
2017-10-20T20:05:21.876Z,92.33
2017-10-20T20:07:49.375Z,92.13
2017-10-20T20:10:16.924Z,92.21
2017-10-20T20:12:44.515Z,92.22
2017-10-20T20:15:12.012Z,91.96
2017-10-20T20:17:39.657Z,91.74
2017-10-20T20:20:07.147Z,91.43
2017-10-20T20:22:34.636Z,91.70
2017-10-20T20:25:02.184Z,91.63
2017-10-20T20:27:29.704Z,91.33
2017-10-20T20:29:57.215Z,91.42
2017-10-20T20:32:24.750Z,90.99
2017-10-20T20:34:52.240Z,90.65
2017-10-20T20:37:19.741Z,90.48
2017-10-20T20:39:47.277Z,90.40
2017-10-20T20:42:14.820Z,90.54
2017-10-20T20:44:42.332Z,90.00
2017-10-20T20:47:09.871Z,89.61
2017-10-20T20:49:37.377Z,89.32
2017-10-20T20:52:04.864Z,88.47
2017-10-20T20:54:32.507Z,88.05
2017-10-20T20:57:00.023Z,88.18
2017-10-20T20:59:27.512Z,87.57
2017-10-20T21:01:55.027Z,87.79
2017-10-20T21:04:22.563Z,87.04
2017-10-20T21:06:50.115Z,87.12
2017-10-20T21:09:17.608Z,88.38
2017-10-20T21:11:45.120Z,88.39
2017-10-20T21:14:12.699Z,88.47
2017-10-20T21:16:40.236Z,87.77
2017-10-20T21:19:07.802Z,88.03
2017-10-20T21:21:35.327Z,88.90
2017-10-20T21:24:02.819Z,88.51
2017-10-20T21:26:30.371Z,88.45
2017-10-20T21:28:57.916Z,88.47
2017-10-20T21:31:25.416Z,88.33
2017-10-20T21:33:52.943Z,88.62
2017-10-20T21:36:20.611Z,88.99
2017-10-20T21:38:48.120Z,89.18
2017-10-20T21:41:15.632Z,89.13
2017-10-20T21:43:43.178Z,89.18
2017-10-20T21:46:10.747Z,89.03
2017-10-20T21:48:38.239Z,89.68
2017-10-20T21:51:05.763Z,90.00
2017-10-20T21:53:33.260Z,89.94
2017-10-20T21:56:00.756Z,90.10
2017-10-20T21:58:28.289Z,90.69
2017-10-20T22:00:55.792Z,90.92
2017-10-20T22:03:23.287Z,90.71
2017-10-20T22:05:50.805Z,90.39
2017-10-20T22:08:18.340Z,90.41
2017-10-20T22:10:45.924Z,91.50
2017-10-20T22:13:13.416Z,90.90
2017-10-20T22:15:40.964Z,90.83
2017-10-20T22:18:08.453Z,91.02
2017-10-20T22:20:35.964Z,90.07
2017-10-20T22:23:03.515Z,90.58
2017-10-20T22:25:31.100Z,90.09
2017-10-20T22:27:58.609Z,90.11
2017-10-20T22:30:26.104Z,90.39
2017-10-20T22:32:53.660Z,90.15
2017-10-20T22:35:21.162Z,89.57
2017-10-20T22:37:48.672Z,89.37
2017-10-20T22:40:16.198Z,89.30
2017-10-20T22:42:43.699Z,88.75
2017-10-20T22:45:11.189Z,89.23
2017-10-20T22:47:38.708Z,88.93
2017-10-20T22:50:06.204Z,88.75
2017-10-20T22:52:33.932Z,88.93
2017-10-20T22:55:01.423Z,89.57
2017-10-20T22:57:28.916Z,89.23
2017-10-20T22:59:56.515Z,89.23
2017-10-20T23:02:24.055Z,89.79
2017-10-20T23:04:51.545Z,88.55
2017-10-20T23:07:19.072Z,87.89
2017-10-20T23:09:46.635Z,88.47
2017-10-20T23:12:14.144Z,87.78
2017-10-20T23:14:41.689Z,87.19
2017-10-20T23:17:09.198Z,87.38
2017-10-20T23:19:36.687Z,88.17
2017-10-20T23:22:04.203Z,88.58
2017-10-20T23:24:31.699Z,88.46
2017-10-20T23:26:59.191Z,88.53
2017-10-20T23:29:26.818Z,88.74
2017-10-20T23:31:54.315Z,88.68
2017-10-20T23:34:21.853Z,88.44
2017-10-20T23:36:49.343Z,88.88
2017-10-20T23:39:16.839Z,89.20
2017-10-20T23:41:44.491Z,88.88
2017-10-20T23:44:12.055Z,89.65
2017-10-20T23:46:39.544Z,88.87
2017-10-20T23:49:07.298Z,88.74
2017-10-20T23:51:34.797Z,89.32
2017-10-20T23:54:02.296Z,88.52
2017-10-20T23:56:29.827Z,87.72
2017-10-20T23:58:57.410Z,88.20
